РПИ Ростов-на-Дону

8 октября 2002 года в связи с концептуальными решениями реорганизации ЕС ОрВД и необходимостью оптимизации количества дочерних предприятий на основании распоряжения Министерства имущественных отношений Российской Федерации впервые на Юге России путем слияния ГУДП СКЦ АУВД «Стрела», ГУДП «Волгоградаэронавигация» и ГУДП «Кавказаэронавигация» было создано Государственное унитарное дочернее предприятие «Аэронавигация Юга».

ОСНОВНЫЕ ФУНКЦИИ ФИЛИАЛА: организация воздушного движения в границах ответственности; планирование и координирование использования воздушного пространства; информационное обеспечение пользователей воздушного пространства, предоставление средств радиотехнического обеспечения полётов, авиационной электросвязи; организация и осуществление технической эксплуатации и обслуживания объектов и средств радиотехнического обеспечения полётов, авиационной электросвязи и средств авиационной фиксированной спутниковой связи; контроль качества аэронавигационного обслуживания.

Обслуживаемая филиалом площадь, в воздушном пространстве которой решаются задачи ИВП и УВД, составляет 729 000 кв. км.

На территории Ростовской зоны ЕС ОрВД располагаются:

  • 104 воздушные трассы протяженностью 36504 км. (международных – 82, внутренних – 22);
  • 15 аэродромов гражданской авиации;
  • 37 аэродромов государственной авиации;
  • 3 аэродрома экспериментальной авиации;
  • 9 аэродромов ДОСААФ;
  • 151 посадочная площадка;
  • 177 градобойных  и 5 противолавинных позиций;
  • 47 авиационных и общевойсковых полигонов.

Филиал осуществляет аэронавигационное обслуживание в воздушном пространстве в границах Ростовской, Волгоградской, Астраханской областей, Краснодарского и Ставропольского краев, республик Адыгеи, Калмыкии, Ингушетии, Дагестана, Чеченской, Северной Осетии (Алания), Карачаево-Черкесской и Кабардино-Балкарской, а также над акваториями Азовского, Каспийского и Черного морей.

Сектора РЦ РПИ Ростов-на-Дону

Объединенный сектор РЦ - URRV_CTR - 122.900

Руководство

Grigori Badalov*

Куратор

Valeriy Polostyanoy

Первый заместитель куратора

Dmitrii Khrupov

Помощник куратора по мероприятиям
Инструкторы РПИ
Daniel Ryabkov * (Controller)
Denis Zhuchkov (Instructor)
Grigori Badalov (Instructor)
Oleg Kabachenko * (Senior Student)
Valeriy Polostyanoy (Instructor)
Входит в состав
Кавказ

Диспетчеры РПИ

Диспетчер Рейтинг Допуски *
Alexei Gladilin Controller URRV_CTR
Anatoly Zhilkin Controller URRV_CTR
Artem Smychkov Instructor URRV_CTR
Daniel Ryabkov Controller URRV_CTR
Denis Zhuchkov Instructor URRV_CTR
Grigori Badalov Instructor URRV_CTR
Ivan Chernov Senior Controller URRV_CTR
Kirill Ivanov Controller URRV_CTR , SIP_APP
Valeriy Polostyanoy Instructor URRV_CTR
Alex Lupii Student 2 URSS_TWR, URSS_GND
Alexandr Rozhkov Student URSS_GND
Alexey Ginko Student 2 URSS_GND, URSS_TWR!!!*
Anton Fadeev Student URSS_GND
Dmitrii Khrupov Student 2 URMM_TWR, URSS_R_APP*, URWW_GND
Dmitry Sazonov Senior Student URSS_APP
Emanuel Teymoorian Senior Student URRP_APP , URSS_APP*
Gregory Adamov Student 2 URSS_TWR
Ivan Pivovarov Student 2 URSS_R_APP*
Maksim Kholodilov Student URFF_TWR!!!*
Maxim Baglikov Student 2 URSS_TWR!!!, URSS_R_APP*
Nikolay Kutorkin Student URSS_TWR!!!*, URSS_GND
Oleg Kabachenko Senior Student URSS_APP
Radomir Sigov Student URSS_GND
Sergey Vologzhin Unknown URSS_GND

Аэропорты РПИ

ICAO Город Название Погода
URFF Симферополь Симферополь
URSS Сочи Сочи URSS 162230Z 05001MPS 9999 FEW080 20/18 Q1013 R02/010070 R06/010070 NOSIG RMK R06/00000MPS QFE758
URRY
URKA Анапа Анапа URKA 162230Z 22006MPS 9999 BKN019CB 21/18 Q1012 R21/010070 TEMPO 3000 -TSRA SCT007 BKN016CB RMK QFE754/1005
URWA Астрахань Астрахань URWA 162230Z 00000MPS CAVOK 21/20 Q1012 R09/010070 NOSIG RMK QFE760/1014
URMO Владикавказ Беслан URMO 162230Z 22003MPS 9999 NSC 19/18 Q1014 R27/010070 TEMPO 0300 FG BKN002 RMK QFE716/0955
URWW Волгоград Волгоград URWW 162230Z 28002MPS 9999 -SHRA BKN050CB 21/19 Q1012 R23/290157 TEMPO VRB25MPS 0500 +TSRAGR SQ BKN003 BKN030CB
URKG Геленджик Геленджик
URMG Грозный Грозный URMG 162230Z 32002MPS CAVOK 24/18 Q1011 R26/090070 NOSIG RMK QFE744/0992
URKK Краснодар Пашковский URKK 162230Z 20003MPS 170V230 CAVOK 21/18 Q1012 R23L/CLRD70 NOSIG RMK QFE756
URML Махачкала Уйташ URML 162230Z 18002MPS 8000 BKN006 24/23 Q1010 R14/01//70 NOSIG RMK QBB190 MT OBSC QFE757/1010
URMM Минеральные Воды Минеральные Воды URMM 162230Z 30004MPS 9999 NSC 20/17 Q1014 R29/090070 NOSIG RMK QFE732/0976
URMS Назрань Магас
URMN Нальчик Нальчик URMN 162200Z 26003MPS 9999 SCT/// 23/16 Q1013 R24/////// NOSIG RMK QFE723
URRP Ростов-на-Дону Платов URRP 162230Z 22003MPS 9999 FEW///CB 21/18 Q1011 R23/CLRD70 TEMPO -TSRAGR BKN020CB RMK QFE751/1001
URRR Ростов-на-Дону Ростов-на-Дону
URMT Ставрополь Ставрополь URMT 162230Z 34002MPS CAVOK 21/16 Q1015 R07/010070 NOSIG RMK QFE721
URWI Элиста Элиста URWI 162230Z AUTO 07004MPS 9999 // ///////// 22/18 Q1012